sensor_id;sensor_type;location;lat;lon;timestamp;P1;durP1;ratioP1;P2;durP2;ratioP2
66472;SDS011;53291;51.680;8.344;2022-10-16T00:00:31;5.13;;;1.88;;
66472;SDS011;53291;51.680;8.344;2022-10-16T00:02:57;5.43;;;1.95;;
66472;SDS011;53291;51.680;8.344;2022-10-16T00:05:23;6.38;;;2.10;;
66472;SDS011;53291;51.680;8.344;2022-10-16T00:07:48;5.30;;;2.00;;
66472;SDS011;53291;51.680;8.344;2022-10-16T00:10:14;5.55;;;2.25;;
66472;SDS011;53291;51.680;8.344;2022-10-16T00:12:39;5.28;;;2.35;;
66472;SDS011;53291;51.680;8.344;2022-10-16T00:15:05;5.37;;;2.30;;
66472;SDS011;53291;51.680;8.344;2022-10-16T00:17:31;6.43;;;2.30;;
66472;SDS011;53291;51.680;8.344;2022-10-16T00:19:56;5.18;;;2.20;;
66472;SDS011;53291;51.680;8.344;2022-10-16T00:28:56;5.35;;;2.75;;
66472;SDS011;53291;51.680;8.344;2022-10-16T00:31:22;5.55;;;3.03;;
66472;SDS011;53291;51.680;8.344;2022-10-16T00:33:49;6.75;;;3.00;;
66472;SDS011;53291;51.680;8.344;2022-10-16T00:36:15;5.57;;;2.60;;
66472;SDS011;53291;51.680;8.344;2022-10-16T00:38:43;5.90;;;2.70;;
66472;SDS011;53291;51.680;8.344;2022-10-16T00:41:13;6.57;;;2.50;;
66472;SDS011;53291;51.680;8.344;2022-10-16T00:43:48;6.07;;;3.22;;
66472;SDS011;53291;51.680;8.344;2022-10-16T00:50:02;5.10;;;2.88;;
66472;SDS011;53291;51.680;8.344;2022-10-16T00:52:36;4.60;;;2.90;;
66472;SDS011;53291;51.680;8.344;2022-10-16T00:55:06;4.88;;;2.75;;
66472;SDS011;53291;51.680;8.344;2022-10-16T00:57:32;6.82;;;3.65;;
66472;SDS011;53291;51.680;8.344;2022-10-16T00:59:57;6.28;;;3.25;;
66472;SDS011;53291;51.680;8.344;2022-10-16T01:02:23;8.02;;;3.55;;
66472;SDS011;53291;51.680;8.344;2022-10-16T01:04:50;5.78;;;2.72;;
66472;SDS011;53291;51.680;8.344;2022-10-16T01:07:25;5.93;;;2.85;;
66472;SDS011;53291;51.680;8.344;2022-10-16T01:12:45;6.03;;;2.47;;
66472;SDS011;53291;51.680;8.344;2022-10-16T01:16:19;5.05;;;2.20;;
66472;SDS011;53291;51.680;8.344;2022-10-16T01:18:34;5.15;;;2.38;;
66472;SDS011;53291;51.680;8.344;2022-10-16T01:21:05;5.93;;;2.65;;
66472;SDS011;53291;51.680;8.344;2022-10-16T01:31:27;5.55;;;2.90;;
66472;SDS011;53291;51.680;8.344;2022-10-16T01:34:00;6.63;;;3.60;;
66472;SDS011;53291;51.680;8.344;2022-10-16T01:36:47;6.72;;;3.60;;
66472;SDS011;53291;51.680;8.344;2022-10-16T01:39:23;5.03;;;2.78;;
66472;SDS011;53291;51.680;8.344;2022-10-16T01:44:57;6.60;;;3.70;;
66472;SDS011;53291;51.680;8.344;2022-10-16T01:50:12;6.10;;;2.80;;
66472;SDS011;53291;51.680;8.344;2022-10-16T01:52:40;7.38;;;2.80;;
66472;SDS011;53291;51.680;8.344;2022-10-16T01:55:09;5.15;;;2.58;;
66472;SDS011;53291;51.680;8.344;2022-10-16T01:57:38;6.00;;;3.25;;
66472;SDS011;53291;51.680;8.344;2022-10-16T02:00:07;5.18;;;2.90;;
66472;SDS011;53291;51.680;8.344;2022-10-16T02:02:35;5.13;;;2.83;;
66472;SDS011;53291;51.680;8.344;2022-10-16T02:07:41;5.97;;;2.50;;
66472;SDS011;53291;51.680;8.344;2022-10-16T02:10:07;6.43;;;2.97;;
66472;SDS011;53291;51.680;8.344;2022-10-16T02:12:33;6.18;;;2.40;;
66472;SDS011;53291;51.680;8.344;2022-10-16T02:15:04;4.82;;;2.30;;
66472;SDS011;53291;51.680;8.344;2022-10-16T02:17:30;4.60;;;2.50;;
66472;SDS011;53291;51.680;8.344;2022-10-16T02:19:56;5.63;;;2.13;;
66472;SDS011;53291;51.680;8.344;2022-10-16T02:22:27;4.25;;;1.80;;
66472;SDS011;53291;51.680;8.344;2022-10-16T02:25:39;5.22;;;2.05;;
66472;SDS011;53291;51.680;8.344;2022-10-16T02:30:56;5.07;;;2.28;;
66472;SDS011;53291;51.680;8.344;2022-10-16T02:33:25;4.22;;;2.00;;
66472;SDS011;53291;51.680;8.344;2022-10-16T02:35:52;4.10;;;1.80;;
66472;SDS011;53291;51.680;8.344;2022-10-16T02:38:19;4.22;;;1.58;;
66472;SDS011;53291;51.680;8.344;2022-10-16T03:00:07;4.93;;;1.67;;
66472;SDS011;53291;51.680;8.344;2022-10-16T03:02:39;4.93;;;2.10;;
66472;SDS011;53291;51.680;8.344;2022-10-16T03:05:05;3.53;;;1.60;;
66472;SDS011;53291;51.680;8.344;2022-10-16T03:07:31;3.97;;;1.52;;
66472;SDS011;53291;51.680;8.344;2022-10-16T03:09:56;5.37;;;1.60;;
66472;SDS011;53291;51.680;8.344;2022-10-16T03:12:22;2.95;;;1.42;;
66472;SDS011;53291;51.680;8.344;2022-10-16T03:14:47;3.50;;;2.10;;
66472;SDS011;53291;51.680;8.344;2022-10-16T03:17:12;6.13;;;1.60;;
66472;SDS011;53291;51.680;8.344;2022-10-16T03:19:38;3.50;;;1.40;;
66472;SDS011;53291;51.680;8.344;2022-10-16T03:25:16;3.13;;;1.33;;
66472;SDS011;53291;51.680;8.344;2022-10-16T03:27:41;2.50;;;1.23;;
66472;SDS011;53291;51.680;8.344;2022-10-16T03:30:07;2.63;;;1.23;;
66472;SDS011;53291;51.680;8.344;2022-10-16T03:32:33;3.10;;;1.35;;
66472;SDS011;53291;51.680;8.344;2022-10-16T03:34:58;2.60;;;1.03;;
66472;SDS011;53291;51.680;8.344;2022-10-16T03:37:24;2.58;;;1.10;;
66472;SDS011;53291;51.680;8.344;2022-10-16T03:56:36;2.80;;;1.30;;
66472;SDS011;53291;51.680;8.344;2022-10-16T03:59:02;4.18;;;1.40;;
66472;SDS011;53291;51.680;8.344;2022-10-16T04:01:27;3.92;;;1.30;;
66472;SDS011;53291;51.680;8.344;2022-10-16T04:03:52;3.10;;;1.23;;
66472;SDS011;53291;51.680;8.344;2022-10-16T04:06:17;3.00;;;2.10;;
66472;SDS011;53291;51.680;8.344;2022-10-16T04:08:43;3.07;;;1.00;;
66472;SDS011;53291;51.680;8.344;2022-10-16T04:11:08;3.60;;;1.27;;
66472;SDS011;53291;51.680;8.344;2022-10-16T04:13:34;3.00;;;1.33;;
66472;SDS011;53291;51.680;8.344;2022-10-16T04:15:59;2.70;;;1.20;;
66472;SDS011;53291;51.680;8.344;2022-10-16T04:18:24;4.18;;;0.90;;
66472;SDS011;53291;51.680;8.344;2022-10-16T04:20:52;2.53;;;0.82;;
66472;SDS011;53291;51.680;8.344;2022-10-16T04:23:18;4.20;;;0.93;;
66472;SDS011;53291;51.680;8.344;2022-10-16T04:25:43;2.50;;;0.90;;
66472;SDS011;53291;51.680;8.344;2022-10-16T04:28:19;1.30;;;0.70;;
66472;SDS011;53291;51.680;8.344;2022-10-16T04:30:45;1.60;;;0.70;;
66472;SDS011;53291;51.680;8.344;2022-10-16T04:33:11;2.70;;;0.82;;
66472;SDS011;53291;51.680;8.344;2022-10-16T04:35:37;3.20;;;1.00;;
66472;SDS011;53291;51.680;8.344;2022-10-16T04:40:54;1.30;;;0.80;;
66472;SDS011;53291;51.680;8.344;2022-10-16T04:43:19;1.52;;;0.73;;
66472;SDS011;53291;51.680;8.344;2022-10-16T04:45:45;2.30;;;0.73;;
66472;SDS011;53291;51.680;8.344;2022-10-16T04:48:13;2.25;;;1.00;;
66472;SDS011;53291;51.680;8.344;2022-10-16T05:00:15;2.22;;;1.30;;
66472;SDS011;53291;51.680;8.344;2022-10-16T05:02:41;4.65;;;2.00;;
66472;SDS011;53291;51.680;8.344;2022-10-16T05:05:06;4.80;;;2.10;;
66472;SDS011;53291;51.680;8.344;2022-10-16T05:07:32;5.05;;;2.08;;
66472;SDS011;53291;51.680;8.344;2022-10-16T05:09:57;4.45;;;1.70;;
66472;SDS011;53291;51.680;8.344;2022-10-16T05:12:22;4.70;;;2.50;;
66472;SDS011;53291;51.680;8.344;2022-10-16T05:31:58;4.07;;;1.70;;
66472;SDS011;53291;51.680;8.344;2022-10-16T05:34:23;4.93;;;2.53;;
66472;SDS011;53291;51.680;8.344;2022-10-16T05:36:49;4.23;;;1.77;;
66472;SDS011;53291;51.680;8.344;2022-10-16T05:39:15;4.97;;;1.70;;
66472;SDS011;53291;51.680;8.344;2022-10-16T05:45:17;3.55;;;1.50;;
66472;SDS011;53291;51.680;8.344;2022-10-16T05:51:06;3.25;;;1.50;;
66472;SDS011;53291;51.680;8.344;2022-10-16T06:00:15;3.47;;;1.33;;
66472;SDS011;53291;51.680;8.344;2022-10-16T06:06:11;2.83;;;1.40;;
66472;SDS011;53291;51.680;8.344;2022-10-16T06:08:39;2.83;;;1.08;;
66472;SDS011;53291;51.680;8.344;2022-10-16T06:11:06;2.38;;;1.20;;
66472;SDS011;53291;51.680;8.344;2022-10-16T06:23:08;2.13;;;1.10;;
66472;SDS011;53291;51.680;8.344;2022-10-16T06:25:33;2.03;;;1.00;;
66472;SDS011;53291;51.680;8.344;2022-10-16T06:27:58;1.70;;;1.50;;
66472;SDS011;53291;51.680;8.344;2022-10-16T06:30:24;2.58;;;1.63;;
66472;SDS011;53291;51.680;8.344;2022-10-16T06:32:49;2.27;;;1.23;;
66472;SDS011;53291;51.680;8.344;2022-10-16T06:35:15;2.63;;;1.40;;
66472;SDS011;53291;51.680;8.344;2022-10-16T06:37:40;2.90;;;1.30;;
66472;SDS011;53291;51.680;8.344;2022-10-16T06:40:05;2.75;;;1.05;;
66472;SDS011;53291;51.680;8.344;2022-10-16T06:42:31;2.38;;;1.15;;
66472;SDS011;53291;51.680;8.344;2022-10-16T06:44:57;2.87;;;1.20;;
66472;SDS011;53291;51.680;8.344;2022-10-16T06:47:22;3.03;;;1.27;;
66472;SDS011;53291;51.680;8.344;2022-10-16T06:49:47;1.97;;;0.80;;
66472;SDS011;53291;51.680;8.344;2022-10-16T06:52:12;2.35;;;1.17;;
66472;SDS011;53291;51.680;8.344;2022-10-16T06:54:38;3.33;;;1.00;;
66472;SDS011;53291;51.680;8.344;2022-10-16T06:57:03;2.60;;;1.00;;
66472;SDS011;53291;51.680;8.344;2022-10-16T06:59:28;3.85;;;1.90;;
66472;SDS011;53291;51.680;8.344;2022-10-16T07:01:54;3.37;;;1.20;;
66472;SDS011;53291;51.680;8.344;2022-10-16T07:04:19;4.30;;;1.70;;
66472;SDS011;53291;51.680;8.344;2022-10-16T07:06:44;2.63;;;1.20;;
66472;SDS011;53291;51.680;8.344;2022-10-16T07:09:10;2.78;;;1.20;;
66472;SDS011;53291;51.680;8.344;2022-10-16T07:11:36;2.53;;;1.05;;
66472;SDS011;53291;51.680;8.344;2022-10-16T07:14:03;2.15;;;0.88;;
66472;SDS011;53291;51.680;8.344;2022-10-16T07:16:30;2.90;;;1.08;;
66472;SDS011;53291;51.680;8.344;2022-10-16T07:18:57;2.50;;;0.90;;
66472;SDS011;53291;51.680;8.344;2022-10-16T07:21:24;1.63;;;0.80;;
66472;SDS011;53291;51.680;8.344;2022-10-16T07:23:51;3.00;;;0.73;;
66472;SDS011;53291;51.680;8.344;2022-10-16T07:26:17;1.90;;;0.70;;
66472;SDS011;53291;51.680;8.344;2022-10-16T07:28:43;1.90;;;0.70;;
66472;SDS011;53291;51.680;8.344;2022-10-16T07:31:10;3.10;;;0.77;;
66472;SDS011;53291;51.680;8.344;2022-10-16T07:33:38;2.00;;;0.80;;
66472;SDS011;53291;51.680;8.344;2022-10-16T07:36:07;2.28;;;0.90;;
66472;SDS011;53291;51.680;8.344;2022-10-16T07:38:33;1.63;;;0.77;;
66472;SDS011;53291;51.680;8.344;2022-10-16T07:40:59;1.40;;;0.60;;
66472;SDS011;53291;51.680;8.344;2022-10-16T07:43:28;1.70;;;0.50;;
66472;SDS011;53291;51.680;8.344;2022-10-16T07:45:55;4.63;;;0.80;;
66472;SDS011;53291;51.680;8.344;2022-10-16T07:48:21;3.72;;;1.08;;
66472;SDS011;53291;51.680;8.344;2022-10-16T07:50:48;2.67;;;0.70;;
66472;SDS011;53291;51.680;8.344;2022-10-16T07:53:13;1.95;;;0.80;;
66472;SDS011;53291;51.680;8.344;2022-10-16T07:55:39;2.28;;;0.60;;
66472;SDS011;53291;51.680;8.344;2022-10-16T07:58:04;3.05;;;1.20;;
66472;SDS011;53291;51.680;8.344;2022-10-16T08:00:30;3.25;;;0.68;;
66472;SDS011;53291;51.680;8.344;2022-10-16T08:02:57;0.82;;;0.47;;
66472;SDS011;53291;51.680;8.344;2022-10-16T08:05:25;1.00;;;0.45;;
66472;SDS011;53291;51.680;8.344;2022-10-16T08:07:52;1.58;;;0.57;;
66472;SDS011;53291;51.680;8.344;2022-10-16T08:10:18;2.30;;;0.50;;
66472;SDS011;53291;51.680;8.344;2022-10-16T08:12:44;1.48;;;0.77;;
66472;SDS011;53291;51.680;8.344;2022-10-16T08:15:10;2.87;;;0.70;;
66472;SDS011;53291;51.680;8.344;2022-10-16T08:17:35;2.10;;;0.60;;
66472;SDS011;53291;51.680;8.344;2022-10-16T08:20:00;4.03;;;0.73;;
66472;SDS011;53291;51.680;8.344;2022-10-16T08:22:26;0.90;;;0.50;;
66472;SDS011;53291;51.680;8.344;2022-10-16T08:24:52;1.27;;;0.93;;
66472;SDS011;53291;51.680;8.344;2022-10-16T08:27:17;1.35;;;0.60;;
66472;SDS011;53291;51.680;8.344;2022-10-16T08:29:42;1.40;;;0.50;;
66472;SDS011;53291;51.680;8.344;2022-10-16T08:32:08;1.97;;;0.50;;
66472;SDS011;53291;51.680;8.344;2022-10-16T08:34:33;2.78;;;0.52;;
66472;SDS011;53291;51.680;8.344;2022-10-16T08:36:58;1.50;;;1.00;;
66472;SDS011;53291;51.680;8.344;2022-10-16T08:39:24;2.05;;;0.70;;
66472;SDS011;53291;51.680;8.344;2022-10-16T08:41:55;2.28;;;0.45;;
66472;SDS011;53291;51.680;8.344;2022-10-16T08:44:30;2.35;;;0.60;;
66472;SDS011;53291;51.680;8.344;2022-10-16T08:49:50;2.30;;;0.60;;
66472;SDS011;53291;51.680;8.344;2022-10-16T08:52:21;1.27;;;0.50;;
66472;SDS011;53291;51.680;8.344;2022-10-16T08:54:49;1.63;;;0.40;;
66472;SDS011;53291;51.680;8.344;2022-10-16T08:57:19;4.25;;;0.85;;
66472;SDS011;53291;51.680;8.344;2022-10-16T08:59:46;1.55;;;0.60;;
66472;SDS011;53291;51.680;8.344;2022-10-16T09:02:26;1.27;;;0.70;;
66472;SDS011;53291;51.680;8.344;2022-10-16T09:10:23;4.13;;;0.60;;
66472;SDS011;53291;51.680;8.344;2022-10-16T09:15:54;1.20;;;0.68;;
66472;SDS011;53291;51.680;8.344;2022-10-16T09:18:28;0.90;;;0.50;;
66472;SDS011;53291;51.680;8.344;2022-10-16T09:21:04;1.13;;;0.60;;
66472;SDS011;53291;51.680;8.344;2022-10-16T09:23:38;2.75;;;0.70;;
66472;SDS011;53291;51.680;8.344;2022-10-16T09:26:04;1.80;;;0.93;;
66472;SDS011;53291;51.680;8.344;2022-10-16T09:28:34;1.98;;;0.75;;
66472;SDS011;53291;51.680;8.344;2022-10-16T09:30:59;1.63;;;0.70;;
66472;SDS011;53291;51.680;8.344;2022-10-16T09:33:27;1.20;;;1.10;;
66472;SDS011;53291;51.680;8.344;2022-10-16T09:35:55;3.58;;;0.63;;
66472;SDS011;53291;51.680;8.344;2022-10-16T09:38:31;1.98;;;0.60;;
66472;SDS011;53291;51.680;8.344;2022-10-16T09:41:02;3.03;;;0.60;;
66472;SDS011;53291;51.680;8.344;2022-10-16T09:44:13;2.50;;;0.68;;
66472;SDS011;53291;51.680;8.344;2022-10-16T09:46:31;1.75;;;0.50;;
66472;SDS011;53291;51.680;8.344;2022-10-16T09:48:59;2.88;;;0.55;;
66472;SDS011;53291;51.680;8.344;2022-10-16T09:51:27;4.30;;;0.50;;
66472;SDS011;53291;51.680;8.344;2022-10-16T09:53:55;1.88;;;0.47;;
66472;SDS011;53291;51.680;8.344;2022-10-16T09:56:27;2.60;;;0.40;;
66472;SDS011;53291;51.680;8.344;2022-10-16T09:59:03;1.73;;;0.50;;
66472;SDS011;53291;51.680;8.344;2022-10-16T10:01:37;1.80;;;0.60;;
66472;SDS011;53291;51.680;8.344;2022-10-16T10:04:04;3.70;;;0.50;;
66472;SDS011;53291;51.680;8.344;2022-10-16T10:06:31;0.77;;;0.30;;
66472;SDS011;53291;51.680;8.344;2022-10-16T10:11:59;2.40;;;0.40;;
66472;SDS011;53291;51.680;8.344;2022-10-16T10:14:31;0.98;;;0.40;;
66472;SDS011;53291;51.680;8.344;2022-10-16T10:17:17;1.27;;;0.50;;
66472;SDS011;53291;51.680;8.344;2022-10-16T10:22:24;1.77;;;0.50;;
66472;SDS011;53291;51.680;8.344;2022-10-16T10:24:55;1.13;;;0.30;;
66472;SDS011;53291;51.680;8.344;2022-10-16T10:27:20;1.20;;;0.57;;
66472;SDS011;53291;51.680;8.344;2022-10-16T10:35:14;2.63;;;0.38;;
66472;SDS011;53291;51.680;8.344;2022-10-16T10:38:12;0.95;;;0.55;;
66472;SDS011;53291;51.680;8.344;2022-10-16T10:43:13;3.22;;;0.55;;
66472;SDS011;53291;51.680;8.344;2022-10-16T10:45:48;2.08;;;0.32;;
66472;SDS011;53291;51.680;8.344;2022-10-16T10:51:23;1.55;;;0.50;;
66472;SDS011;53291;51.680;8.344;2022-10-16T11:01:54;0.98;;;0.30;;
66472;SDS011;53291;51.680;8.344;2022-10-16T11:04:29;1.85;;;0.20;;
66472;SDS011;53291;51.680;8.344;2022-10-16T11:07:05;1.40;;;0.20;;
66472;SDS011;53291;51.680;8.344;2022-10-16T11:09:36;1.55;;;0.25;;
66472;SDS011;53291;51.680;8.344;2022-10-16T11:12:14;1.27;;;0.30;;
66472;SDS011;53291;51.680;8.344;2022-10-16T11:17:52;2.03;;;0.32;;
66472;SDS011;53291;51.680;8.344;2022-10-16T11:20:31;1.23;;;0.30;;
66472;SDS011;53291;51.680;8.344;2022-10-16T11:23:00;0.60;;;0.20;;
66472;SDS011;53291;51.680;8.344;2022-10-16T11:25:33;1.40;;;0.20;;
66472;SDS011;53291;51.680;8.344;2022-10-16T11:28:03;3.95;;;0.32;;
66472;SDS011;53291;51.680;8.344;2022-10-16T11:36:21;1.02;;;0.28;;
66472;SDS011;53291;51.680;8.344;2022-10-16T11:39:20;2.60;;;0.57;;
66472;SDS011;53291;51.680;8.344;2022-10-16T11:49:47;1.58;;;0.30;;
66472;SDS011;53291;51.680;8.344;2022-10-16T11:57:23;1.52;;;0.47;;
66472;SDS011;53291;51.680;8.344;2022-10-16T11:59:58;1.27;;;0.32;;
66472;SDS011;53291;51.680;8.344;2022-10-16T12:02:33;1.63;;;0.20;;
66472;SDS011;53291;51.680;8.344;2022-10-16T12:05:35;2.58;;;0.30;;
66472;SDS011;53291;51.680;8.344;2022-10-16T12:08:09;2.03;;;0.65;;
66472;SDS011;53291;51.680;8.344;2022-10-16T12:10:38;1.00;;;0.40;;
66472;SDS011;53291;51.680;8.344;2022-10-16T12:13:26;0.70;;;0.30;;
66472;SDS011;53291;51.680;8.344;2022-10-16T12:16:03;1.33;;;0.25;;
66472;SDS011;53291;51.680;8.344;2022-10-16T12:18:45;1.95;;;0.40;;
66472;SDS011;53291;51.680;8.344;2022-10-16T12:21:12;1.98;;;0.80;;
66472;SDS011;53291;51.680;8.344;2022-10-16T12:23:47;1.90;;;0.50;;
66472;SDS011;53291;51.680;8.344;2022-10-16T12:26:15;1.15;;;0.45;;
66472;SDS011;53291;51.680;8.344;2022-10-16T12:28:49;0.93;;;0.30;;
66472;SDS011;53291;51.680;8.344;2022-10-16T12:31:16;1.15;;;0.70;;
66472;SDS011;53291;51.680;8.344;2022-10-16T12:33:51;1.00;;;0.30;;
66472;SDS011;53291;51.680;8.344;2022-10-16T12:38:58;1.27;;;0.43;;
66472;SDS011;53291;51.680;8.344;2022-10-16T12:41:25;0.50;;;0.30;;
66472;SDS011;53291;51.680;8.344;2022-10-16T12:43:51;1.77;;;0.75;;
66472;SDS011;53291;51.680;8.344;2022-10-16T12:48:43;1.67;;;0.40;;
66472;SDS011;53291;51.680;8.344;2022-10-16T12:51:21;2.75;;;0.40;;
66472;SDS011;53291;51.680;8.344;2022-10-16T12:56:41;1.33;;;0.73;;
66472;SDS011;53291;51.680;8.344;2022-10-16T12:59:20;2.28;;;0.52;;
66472;SDS011;53291;51.680;8.344;2022-10-16T13:04:53;1.80;;;0.30;;
66472;SDS011;53291;51.680;8.344;2022-10-16T13:10:54;1.58;;;0.30;;
66472;SDS011;53291;51.680;8.344;2022-10-16T13:18:56;1.80;;;0.40;;
66472;SDS011;53291;51.680;8.344;2022-10-16T13:21:46;1.98;;;0.43;;
66472;SDS011;53291;51.680;8.344;2022-10-16T13:24:23;1.85;;;0.30;;
66472;SDS011;53291;51.680;8.344;2022-10-16T13:27:05;2.38;;;0.50;;
66472;SDS011;53291;51.680;8.344;2022-10-16T13:29:39;1.90;;;0.40;;
66472;SDS011;53291;51.680;8.344;2022-10-16T13:32:09;1.27;;;0.50;;
66472;SDS011;53291;51.680;8.344;2022-10-16T13:34:46;1.67;;;0.90;;
66472;SDS011;53291;51.680;8.344;2022-10-16T13:37:17;1.38;;;0.38;;
66472;SDS011;53291;51.680;8.344;2022-10-16T13:39:47;0.80;;;0.30;;
66472;SDS011;53291;51.680;8.344;2022-10-16T13:42:19;3.80;;;0.55;;
66472;SDS011;53291;51.680;8.344;2022-10-16T13:44:49;1.38;;;0.30;;
66472;SDS011;53291;51.680;8.344;2022-10-16T13:47:17;1.05;;;0.73;;
66472;SDS011;53291;51.680;8.344;2022-10-16T13:49:44;1.92;;;0.45;;
66472;SDS011;53291;51.680;8.344;2022-10-16T13:52:17;2.05;;;0.30;;
66472;SDS011;53291;51.680;8.344;2022-10-16T13:54:46;1.55;;;0.60;;
66472;SDS011;53291;51.680;8.344;2022-10-16T13:57:15;1.98;;;0.40;;
66472;SDS011;53291;51.680;8.344;2022-10-16T13:59:41;0.73;;;0.52;;
66472;SDS011;53291;51.680;8.344;2022-10-16T14:04:54;1.88;;;0.40;;
66472;SDS011;53291;51.680;8.344;2022-10-16T14:07:25;2.10;;;0.43;;
66472;SDS011;53291;51.680;8.344;2022-10-16T14:09:53;1.65;;;0.30;;
66472;SDS011;53291;51.680;8.344;2022-10-16T14:12:19;1.55;;;0.40;;
66472;SDS011;53291;51.680;8.344;2022-10-16T14:14:47;1.23;;;0.40;;
66472;SDS011;53291;51.680;8.344;2022-10-16T14:19:40;4.07;;;0.70;;
66472;SDS011;53291;51.680;8.344;2022-10-16T14:22:33;0.85;;;0.20;;
66472;SDS011;53291;51.680;8.344;2022-10-16T14:24:56;2.90;;;0.40;;
66472;SDS011;53291;51.680;8.344;2022-10-16T14:27:35;1.27;;;0.40;;
66472;SDS011;53291;51.680;8.344;2022-10-16T14:30:11;1.45;;;1.05;;
66472;SDS011;53291;51.680;8.344;2022-10-16T14:32:37;3.78;;;0.63;;
66472;SDS011;53291;51.680;8.344;2022-10-16T14:35:21;1.02;;;0.40;;
66472;SDS011;53291;51.680;8.344;2022-10-16T14:37:51;1.58;;;0.40;;
66472;SDS011;53291;51.680;8.344;2022-10-16T14:42:42;0.82;;;0.40;;
66472;SDS011;53291;51.680;8.344;2022-10-16T14:45:09;1.08;;;0.40;;
66472;SDS011;53291;51.680;8.344;2022-10-16T14:47:36;1.92;;;0.30;;
66472;SDS011;53291;51.680;8.344;2022-10-16T14:50:12;5.15;;;2.17;;
66472;SDS011;53291;51.680;8.344;2022-10-16T14:52:38;2.55;;;0.70;;
66472;SDS011;53291;51.680;8.344;2022-10-16T14:55:03;1.67;;;0.60;;
66472;SDS011;53291;51.680;8.344;2022-10-16T14:57:30;1.25;;;0.70;;
66472;SDS011;53291;51.680;8.344;2022-10-16T14:59:57;1.95;;;0.45;;
66472;SDS011;53291;51.680;8.344;2022-10-16T15:02:35;2.08;;;0.63;;
66472;SDS011;53291;51.680;8.344;2022-10-16T15:05:11;1.88;;;0.70;;
66472;SDS011;53291;51.680;8.344;2022-10-16T15:07:42;0.85;;;0.30;;
66472;SDS011;53291;51.680;8.344;2022-10-16T15:10:07;3.97;;;2.05;;
66472;SDS011;53291;51.680;8.344;2022-10-16T15:12:33;3.13;;;0.55;;
66472;SDS011;53291;51.680;8.344;2022-10-16T15:14:59;2.30;;;0.97;;
66472;SDS011;53291;51.680;8.344;2022-10-16T15:17:24;2.55;;;0.73;;
66472;SDS011;53291;51.680;8.344;2022-10-16T15:19:49;1.33;;;0.30;;
66472;SDS011;53291;51.680;8.344;2022-10-16T15:22:16;2.58;;;0.30;;
66472;SDS011;53291;51.680;8.344;2022-10-16T15:24:42;1.83;;;0.47;;
66472;SDS011;53291;51.680;8.344;2022-10-16T15:27:07;1.88;;;0.45;;
66472;SDS011;53291;51.680;8.344;2022-10-16T15:29:33;3.00;;;0.90;;
66472;SDS011;53291;51.680;8.344;2022-10-16T15:31:58;3.53;;;0.55;;
66472;SDS011;53291;51.680;8.344;2022-10-16T15:34:23;1.83;;;0.95;;
66472;SDS011;53291;51.680;8.344;2022-10-16T15:36:49;1.85;;;0.40;;
66472;SDS011;53291;51.680;8.344;2022-10-16T15:39:15;1.45;;;0.60;;
66472;SDS011;53291;51.680;8.344;2022-10-16T15:41:46;1.42;;;0.40;;
66472;SDS011;53291;51.680;8.344;2022-10-16T15:44:18;1.65;;;0.40;;
66472;SDS011;53291;51.680;8.344;2022-10-16T15:46:45;0.85;;;0.50;;
66472;SDS011;53291;51.680;8.344;2022-10-16T15:49:11;2.25;;;0.50;;
66472;SDS011;53291;51.680;8.344;2022-10-16T15:51:40;2.10;;;1.33;;
66472;SDS011;53291;51.680;8.344;2022-10-16T15:54:07;1.15;;;0.40;;
66472;SDS011;53291;51.680;8.344;2022-10-16T15:56:33;1.90;;;0.55;;
66472;SDS011;53291;51.680;8.344;2022-10-16T15:59:02;1.17;;;0.55;;
66472;SDS011;53291;51.680;8.344;2022-10-16T16:01:27;2.25;;;0.43;;
66472;SDS011;53291;51.680;8.344;2022-10-16T16:03:54;1.00;;;0.40;;
66472;SDS011;53291;51.680;8.344;2022-10-16T16:06:21;2.25;;;0.90;;
66472;SDS011;53291;51.680;8.344;2022-10-16T16:08:49;2.45;;;0.60;;
66472;SDS011;53291;51.680;8.344;2022-10-16T16:11:15;3.03;;;1.08;;
66472;SDS011;53291;51.680;8.344;2022-10-16T16:13:43;3.08;;;1.17;;
66472;SDS011;53291;51.680;8.344;2022-10-16T16:16:09;3.08;;;1.40;;
66472;SDS011;53291;51.680;8.344;2022-10-16T16:18:37;5.43;;;2.42;;
66472;SDS011;53291;51.680;8.344;2022-10-16T16:21:03;3.10;;;1.27;;
66472;SDS011;53291;51.680;8.344;2022-10-16T16:23:29;3.80;;;1.20;;
66472;SDS011;53291;51.680;8.344;2022-10-16T16:26:22;6.60;;;1.70;;
66472;SDS011;53291;51.680;8.344;2022-10-16T16:28:48;4.35;;;1.30;;
66472;SDS011;53291;51.680;8.344;2022-10-16T16:31:14;5.03;;;1.00;;
66472;SDS011;53291;51.680;8.344;2022-10-16T16:33:39;4.13;;;1.17;;
66472;SDS011;53291;51.680;8.344;2022-10-16T16:36:05;6.95;;;2.55;;
66472;SDS011;53291;51.680;8.344;2022-10-16T16:38:31;5.22;;;1.70;;
66472;SDS011;53291;51.680;8.344;2022-10-16T16:40:58;3.97;;;1.38;;
66472;SDS011;53291;51.680;8.344;2022-10-16T16:43:24;2.95;;;1.40;;
66472;SDS011;53291;51.680;8.344;2022-10-16T16:45:50;2.47;;;0.90;;
66472;SDS011;53291;51.680;8.344;2022-10-16T16:48:16;4.45;;;2.28;;
66472;SDS011;53291;51.680;8.344;2022-10-16T16:50:41;5.55;;;2.35;;
66472;SDS011;53291;51.680;8.344;2022-10-16T16:53:07;5.13;;;2.05;;
66472;SDS011;53291;51.680;8.344;2022-10-16T16:55:32;4.93;;;1.80;;
66472;SDS011;53291;51.680;8.344;2022-10-16T16:57:59;5.85;;;2.33;;
66472;SDS011;53291;51.680;8.344;2022-10-16T17:00:24;4.32;;;1.77;;
66472;SDS011;53291;51.680;8.344;2022-10-16T17:02:50;4.55;;;1.65;;
66472;SDS011;53291;51.680;8.344;2022-10-16T17:05:16;3.28;;;1.25;;
66472;SDS011;53291;51.680;8.344;2022-10-16T17:07:43;4.18;;;1.67;;
66472;SDS011;53291;51.680;8.344;2022-10-16T17:10:08;5.13;;;1.83;;
66472;SDS011;53291;51.680;8.344;2022-10-16T17:12:34;4.22;;;1.95;;
66472;SDS011;53291;51.680;8.344;2022-10-16T17:15:00;4.65;;;1.80;;
66472;SDS011;53291;51.680;8.344;2022-10-16T17:17:26;7.95;;;4.00;;
66472;SDS011;53291;51.680;8.344;2022-10-16T17:19:51;4.13;;;1.90;;
66472;SDS011;53291;51.680;8.344;2022-10-16T17:22:17;3.45;;;1.50;;
66472;SDS011;53291;51.680;8.344;2022-10-16T17:24:43;4.63;;;1.88;;
66472;SDS011;53291;51.680;8.344;2022-10-16T17:27:08;5.00;;;1.65;;
66472;SDS011;53291;51.680;8.344;2022-10-16T17:29:36;2.67;;;0.95;;
66472;SDS011;53291;51.680;8.344;2022-10-16T17:32:01;2.50;;;0.90;;
66472;SDS011;53291;51.680;8.344;2022-10-16T17:34:27;3.90;;;1.30;;
66472;SDS011;53291;51.680;8.344;2022-10-16T17:36:52;3.22;;;1.30;;
66472;SDS011;53291;51.680;8.344;2022-10-16T17:39:18;2.97;;;1.13;;
66472;SDS011;53291;51.680;8.344;2022-10-16T17:41:44;2.92;;;1.27;;
66472;SDS011;53291;51.680;8.344;2022-10-16T17:44:11;4.25;;;1.42;;
66472;SDS011;53291;51.680;8.344;2022-10-16T17:46:53;2.88;;;1.50;;
66472;SDS011;53291;51.680;8.344;2022-10-16T17:49:18;4.97;;;1.85;;
66472;SDS011;53291;51.680;8.344;2022-10-16T17:51:45;3.70;;;1.77;;
66472;SDS011;53291;51.680;8.344;2022-10-16T17:54:13;5.50;;;2.15;;
66472;SDS011;53291;51.680;8.344;2022-10-16T17:56:38;2.88;;;1.52;;
66472;SDS011;53291;51.680;8.344;2022-10-16T17:59:04;4.32;;;1.88;;
66472;SDS011;53291;51.680;8.344;2022-10-16T18:01:32;3.90;;;1.60;;
66472;SDS011;53291;51.680;8.344;2022-10-16T18:04:02;4.43;;;1.20;;
66472;SDS011;53291;51.680;8.344;2022-10-16T18:06:31;2.85;;;1.23;;
66472;SDS011;53291;51.680;8.344;2022-10-16T18:08:58;4.13;;;1.38;;
66472;SDS011;53291;51.680;8.344;2022-10-16T18:11:24;4.07;;;1.60;;
66472;SDS011;53291;51.680;8.344;2022-10-16T18:13:51;4.22;;;1.80;;
66472;SDS011;53291;51.680;8.344;2022-10-16T18:16:17;5.63;;;1.95;;
66472;SDS011;53291;51.680;8.344;2022-10-16T18:18:42;3.75;;;1.50;;
66472;SDS011;53291;51.680;8.344;2022-10-16T18:21:14;2.95;;;1.80;;
66472;SDS011;53291;51.680;8.344;2022-10-16T18:23:42;4.93;;;1.27;;
66472;SDS011;53291;51.680;8.344;2022-10-16T18:26:08;4.10;;;1.60;;
66472;SDS011;53291;51.680;8.344;2022-10-16T18:28:35;3.35;;;1.30;;
66472;SDS011;53291;51.680;8.344;2022-10-16T18:31:02;4.00;;;2.30;;